Anta, Argentina
Current Conditions -  °F | °C
As of 12:00 PM on Friday 19 Dec 2014 (Local Time) from SASJ Reporting Station
Scattered Clouds Scattered Clouds  
Wind Chill: 79°   Ceiling: Unl
Heat Index: 80°   Visibility: 6mi
Dew Point: 63°   Wind: 7mph
Humidity: 57%   Direction: 90°E
Pressure: 29.85"   Gusts: NA
Location:  24.92°S, 64.47°W
Report Text: SASJ 191500Z 09006KT 050V160 9999 SCT02026/17 Q1011
Loading
Personal Weather Stations






























Interactive Weather Map New forecast layout! Learn more

10-Day Weather Forecast

Advertisements
Track Severe Weather on mobile